Time;durP1;ratioP1;P1;durP2;ratioP2;P2;SDS_P1;SDS_P2;PMS_P1;PMS_P2;Temp;Humidity;BMP_temperature;BMP_pressure;BME280_temperature;BME280_humidity;BME280_pressure;Samples;Min_cycle;Max_cycle;Signal;HPM_P1;HPM_P2
2023/03/01 00:01:46;;;;;;;38.50;34.60;;;;;;;-3.75;72.34;99062.34;106991;1276;25404;-88
2023/03/01 00:04:15;;;;;;;36.00;32.10;;;;;;;-3.73;72.06;99059.83;107215;1276;25294;-87
2023/03/01 00:06:45;;;;;;;36.30;32.60;;;;;;;-3.73;72.17;99061.98;106970;1276;25261;-85
2023/03/01 00:09:15;;;;;;;35.50;31.90;;;;;;;-3.73;72.69;99062.45;107211;1276;24273;-87
2023/03/01 00:11:43;;;;;;;46.60;42.20;;;;;;;-3.74;72.32;99059.77;107242;1276;22528;-84
2023/03/01 00:14:12;;;;;;;40.80;36.60;;;;;;;-3.76;72.57;99056.33;107221;1276;22641;-85
2023/03/01 00:16:42;;;;;;;37.90;34.20;;;;;;;-3.76;72.96;99059.73;107228;1276;24398;-86
2023/03/01 00:19:13;;;;;;;36.40;32.80;;;;;;;-3.78;72.87;99057.84;107268;1276;25275;-86
2023/03/01 00:21:41;;;;;;;40.90;36.70;;;;;;;-3.76;72.49;99059.73;107275;1276;25449;-86
2023/03/01 00:24:11;;;;;;;38.70;34.90;;;;;;;-3.72;72.45;99055.38;107229;1263;22524;-86
2023/03/01 00:26:40;;;;;;;37.20;33.70;;;;;;;-3.67;72.33;99054.73;107224;1276;24235;-86
2023/03/01 00:29:07;;;;;;;48.40;43.60;;;;;;;-3.62;72.43;99056.41;106811;1276;22528;-85
2023/03/01 00:31:35;;;;;;;47.40;42.90;;;;;;;-3.60;72.62;99054.42;107187;1276;22582;-84
2023/03/01 00:34:05;;;;;;;60.90;55.20;;;;;;;-3.61;72.51;99051.14;107313;1276;22581;-86
2023/03/01 00:36:36;;;;;;;55.70;50.50;;;;;;;-3.64;72.35;99041.97;107153;1276;25412;-86
2023/03/01 00:39:09;;;;;;;49.30;44.70;;;;;;;-3.66;72.33;99043.31;107209;1276;22531;-84
2023/03/01 00:41:37;;;;;;;49.50;44.90;;;;;;;-3.70;72.37;99039.32;107134;1276;25638;-85
2023/03/01 00:44:05;;;;;;;47.00;42.80;;;;;;;-3.75;72.22;99038.88;107230;1276;22660;-84
2023/03/01 00:46:36;;;;;;;47.00;42.50;;;;;;;-3.81;72.21;99040.48;107220;1276;22623;-85
2023/03/01 00:49:05;;;;;;;47.00;42.50;;;;;;;-3.87;72.23;99039.45;107132;1276;22528;-85
2023/03/01 00:51:33;;;;;;;44.00;39.80;;;;;;;-3.90;72.38;99039.73;107111;1276;22528;-85
2023/03/01 00:54:03;;;;;;;44.10;39.80;;;;;;;-3.88;72.26;99036.00;107178;1266;25313;-84
2023/03/01 00:56:31;;;;;;;47.20;42.80;;;;;;;-3.87;72.25;99034.71;107235;1276;24212;-85
2023/03/01 00:59:00;;;;;;;46.50;41.90;;;;;;;-3.88;72.17;99030.34;107090;1276;22619;-86
2023/03/01 01:01:31;;;;;;;47.10;42.60;;;;;;;-3.93;72.07;99025.81;107204;1276;25053;-85
2023/03/01 01:04:08;;;;;;;65.90;59.70;;;;;;;-4.01;72.39;99022.90;107171;1276;24294;-85
2023/03/01 01:06:46;;;;;;;68.70;62.20;;;;;;;-4.06;72.57;99023.55;106995;1276;22685;-85
2023/03/01 01:09:17;;;;;;;67.30;60.70;;;;;;;-4.15;72.54;99019.76;107139;1276;22631;-85
2023/03/01 01:11:50;;;;;;;58.60;53.10;;;;;;;-4.20;72.64;99020.00;107216;1276;22629;-84
2023/03/01 01:14:19;;;;;;;64.30;58.40;;;;;;;-4.24;72.74;99021.59;107174;1276;22528;-84
2023/03/01 01:16:48;;;;;;;61.40;55.50;;;;;;;-4.30;72.74;99024.15;107148;1276;22604;-84
2023/03/01 01:19:17;;;;;;;47.90;43.10;;;;;;;-4.41;73.10;99024.48;107127;1276;22623;-85
2023/03/01 01:21:46;;;;;;;45.80;41.20;;;;;;;-4.48;72.77;99018.48;107369;1276;24380;-84
2023/03/01 01:24:15;;;;;;;49.20;44.20;;;;;;;-4.49;72.89;99016.16;107601;1276;22787;-84
2023/03/01 01:26:44;;;;;;;46.00;41.40;;;;;;;-4.47;73.36;99017.04;107164;1276;22548;-84
2023/03/01 01:29:13;;;;;;;53.50;48.00;;;;;;;-4.54;74.00;99016.74;107266;1276;25340;-85
2023/03/01 01:31:43;;;;;;;51.80;46.80;;;;;;;-4.68;74.42;99007.75;107186;1276;25434;-85
2023/03/01 01:34:17;;;;;;;51.90;46.90;;;;;;;-4.79;74.29;99002.92;107422;1276;22532;-85
2023/03/01 01:36:49;;;;;;;;;;;;;;;-4.90;74.75;99002.92;107148;1276;22577;-85
2023/03/01 01:39:18;;;;;;;55.60;49.80;;;;;;;-5.08;75.56;99001.88;107105;1276;22650;-84
2023/03/01 01:41:46;;;;;;;51.80;46.80;;;;;;;-5.21;75.36;99005.80;107272;1276;24634;-84
2023/03/01 01:44:16;;;;;;;48.90;44.00;;;;;;;-5.30;75.46;99000.85;107176;1276;25249;-83
2023/03/01 01:47:00;;;;;;;54.70;49.60;;;;;;;-5.35;74.92;98995.14;107187;1276;22525;-84
2023/03/01 01:49:48;;;;;;;50.80;45.90;;;;;;;-5.38;74.82;98995.59;107290;1276;22551;-83
2023/03/01 01:52:35;;;;;;;54.30;49.10;;;;;;;-5.39;75.08;98993.98;107252;1276;25432;-83
2023/03/01 01:55:31;;;;;;;56.60;51.30;;;;;;;-5.41;75.09;98993.11;106940;1276;25742;-82
2023/03/01 01:58:03;;;;;;;54.90;49.90;;;;;;;-5.40;75.04;98992.71;107279;1254;22587;-83
2023/03/01 02:00:31;;;;;;;60.60;54.60;;;;;;;-5.37;75.19;98991.88;107848;1276;22614;-84
2023/03/01 02:03:04;;;;;;;56.50;51.20;;;;;;;-5.35;74.93;98988.17;107458;1276;22637;-83
2023/03/01 02:05:45;;;;;;;53.60;48.70;;;;;;;-5.32;74.89;98983.52;107382;1276;23996;-83
2023/03/01 02:08:25;;;;;;;50.20;45.60;;;;;;;-5.32;75.32;98984.64;107171;1273;22645;-84
2023/03/01 02:10:55;;;;;;;47.80;43.10;;;;;;;-5.32;76.18;98982.34;107118;1276;25342;-85
2023/03/01 02:13:23;;;;;;;51.60;46.70;;;;;;;-5.30;76.49;98977.77;107151;1276;24370;-84
2023/03/01 02:15:54;;;;;;;56.30;50.40;;;;;;;-5.28;76.17;98979.83;107174;1276;24417;-85
2023/03/01 02:18:24;;;;;;;54.50;49.40;;;;;;;-5.28;75.99;98979.83;107162;1276;22649;-84
2023/03/01 02:21:20;;;;;;;59.20;53.90;;;;;;;-5.28;75.79;98981.89;107187;1276;22531;-85
2023/03/01 02:23:49;;;;;;;52.10;47.20;;;;;;;-5.28;75.81;98983.44;107172;1269;24225;-84
2023/03/01 02:26:26;;;;;;;51.10;46.30;;;;;;;-5.28;75.63;98988.16;107097;1276;22532;-84
2023/03/01 02:28:55;;;;;;;51.00;46.50;;;;;;;-5.26;75.89;98987.44;107182;1276;22528;-85
2023/03/01 02:31:42;;;;;;;48.40;43.90;;;;;;;-5.23;75.81;98986.85;107176;1276;24542;-85
2023/03/01 02:34:24;;;;;;;51.40;46.50;;;;;;;-5.23;75.66;98994.33;107097;1255;24354;-85
2023/03/01 02:37:04;;;;;;;46.70;42.40;;;;;;;-5.31;76.39;98992.67;107088;1276;22647;-85
2023/03/01 02:39:47;;;;;;;47.20;42.60;;;;;;;-5.31;76.17;98994.13;107105;1276;22600;-82
2023/03/01 02:42:22;;;;;;;53.00;48.00;;;;;;;-5.29;77.28;98993.91;107094;1276;25358;-84
2023/03/01 02:44:53;;;;;;;57.20;51.70;;;;;;;-5.40;77.99;98989.00;107177;1276;22574;-84
2023/03/01 02:47:22;;;;;;;60.00;54.10;;;;;;;-5.54;78.01;98988.45;107116;1275;22526;-83
2023/03/01 02:49:50;;;;;;;58.30;52.40;;;;;;;-5.68;78.08;98986.79;107201;1276;24296;-84
2023/03/01 02:53:01;;;;;;;61.00;54.80;;;;;;;-5.80;78.01;98991.49;107061;1276;25389;-84
2023/03/01 02:55:29;;;;;;;66.80;60.10;;;;;;;-5.90;77.48;98987.73;106605;1283;23110;-85
2023/03/01 02:58:01;;;;;;;70.30;61.40;;;;;;;-5.97;77.95;98989.33;106756;1283;25408;-85
2023/03/01 03:00:39;;;;;;;60.00;53.90;;;;;;;-6.04;78.10;98991.08;106651;1283;22524;-83
2023/03/01 03:03:09;;;;;;;44.70;40.20;;;;;;;-6.03;77.79;98991.72;106651;1283;25431;-83
2023/03/01 03:05:37;;;;;;;42.30;38.20;;;;;;;-5.94;77.75;98989.02;106727;1283;22581;-86
2023/03/01 03:08:07;;;;;;;47.80;42.90;;;;;;;-5.86;77.55;98988.25;106627;1283;22831;-85
2023/03/01 03:10:39;;;;;;;53.40;48.00;;;;;;;-5.81;77.63;98990.52;106811;1283;22588;-85
2023/03/01 03:13:11;;;;;;;59.30;53.10;;;;;;;-5.76;77.43;98983.20;106596;1283;23961;-84
2023/03/01 03:15:40;;;;;;;59.30;53.50;;;;;;;-5.78;77.18;98983.85;106579;1280;24166;-84
2023/03/01 03:18:12;;;;;;;57.60;52.40;;;;;;;-5.77;77.48;98982.23;106621;1283;22650;-84
2023/03/01 03:20:41;;;;;;;56.00;50.90;;;;;;;-5.73;77.49;98977.63;106731;1283;22583;-83
2023/03/01 03:23:09;;;;;;;53.60;48.80;;;;;;;-5.68;77.50;98970.04;106627;1283;22657;-87
2023/03/01 03:25:37;;;;;;;52.10;47.40;;;;;;;-5.63;78.59;98964.58;106679;1283;24471;-85
2023/03/01 03:28:09;;;;;;;48.90;44.30;;;;;;;-5.62;78.63;98965.69;106537;1283;22712;-84
2023/03/01 03:30:40;;;;;;;51.40;46.30;;;;;;;-5.58;78.09;98967.20;106683;1283;24404;-84
2023/03/01 03:33:11;;;;;;;46.00;41.80;;;;;;;-5.53;78.72;98965.80;107035;1276;22534;-84
2023/03/01 03:35:42;;;;;;;51.10;46.40;;;;;;;-5.56;78.37;98965.22;106939;1276;24257;-84
2023/03/01 03:38:15;;;;;;;51.00;46.50;;;;;;;-5.54;78.33;98961.82;107193;1276;25635;-84
2023/03/01 03:41:05;;;;;;;57.90;53.00;;;;;;;-5.52;78.07;98959.29;107148;1276;22819;-87
2023/03/01 03:43:35;;;;;;;53.50;48.80;;;;;;;-5.51;77.80;98957.48;107362;1276;25608;-84
2023/03/01 03:46:07;;;;;;;52.40;47.70;;;;;;;-5.52;77.99;98961.03;107219;1276;22605;-85
2023/03/01 03:48:41;;;;;;;52.80;48.20;;;;;;;-5.58;77.92;98966.86;107207;1276;22939;-85
2023/03/01 03:51:11;;;;;;;67.50;61.90;;;;;;;-5.64;77.91;98964.69;107236;1276;25364;-86
2023/03/01 03:53:39;;;;;;;55.40;50.50;;;;;;;-5.59;77.92;98966.02;107099;1276;22542;-85
2023/03/01 03:56:08;;;;;;;38.50;35.00;;;;;;;-5.49;78.94;98967.60;107169;1276;22564;-86
2023/03/01 03:58:37;;;;;;;38.30;34.60;;;;;;;-5.47;79.47;98970.17;107239;1276;22770;-85
2023/03/01 04:01:05;;;;;;;41.30;37.60;;;;;;;-5.50;78.99;98971.69;108222;1257;22541;-84
2023/03/01 04:03:34;;;;;;;43.10;39.10;;;;;;;-5.55;79.59;98975.65;108272;1276;22519;-84
2023/03/01 04:06:04;;;;;;;43.70;40.00;;;;;;;-5.68;79.28;98973.91;108895;1276;24317;-85
2023/03/01 04:08:32;;;;;;;45.30;41.30;;;;;;;-5.82;79.25;98968.20;108240;1276;22720;-84
2023/03/01 04:11:25;;;;;;;42.70;39.00;;;;;;;-5.98;79.36;98959.98;107300;1276;22662;-86
2023/03/01 04:13:52;;;;;;;42.00;38.00;;;;;;;-6.08;79.51;98960.73;107509;1257;23990;-84
2023/03/01 04:16:20;;;;;;;38.90;35.30;;;;;;;-6.09;80.27;98967.73;107354;1272;22676;-84
2023/03/01 04:18:52;;;;;;;43.10;39.10;;;;;;;-6.13;80.06;98967.79;107032;1276;22679;-85
2023/03/01 04:21:20;;;;;;;41.70;38.30;;;;;;;-6.11;79.85;98968.77;107153;1276;25469;-84
2023/03/01 04:23:52;;;;;;;41.20;37.70;;;;;;;-6.04;79.78;98971.75;107077;1276;22550;-83
2023/03/01 04:26:20;;;;;;;52.20;47.80;;;;;;;-5.97;79.82;98968.68;107259;1276;23888;-85
2023/03/01 04:28:50;;;;;;;48.20;44.00;;;;;;;-5.94;79.53;98970.78;107102;1276;22548;-84
2023/03/01 04:31:20;;;;;;;42.40;38.60;;;;;;;-5.93;79.48;98972.83;107021;1276;22518;-85
2023/03/01 04:33:55;;;;;;;36.50;33.30;;;;;;;-5.85;79.78;98967.85;107217;1276;25374;-84
2023/03/01 04:36:26;;;;;;;35.10;31.90;;;;;;;-5.73;79.74;98965.33;106915;1276;25464;-85
2023/03/01 04:38:55;;;;;;;34.40;31.10;;;;;;;-5.60;79.42;98966.17;107184;1276;25492;-85
2023/03/01 04:41:25;;;;;;;33.70;30.40;;;;;;;-5.47;79.31;98965.67;107121;1276;23209;-85
2023/03/01 04:43:53;;;;;;;38.90;35.10;;;;;;;-5.37;79.15;98965.09;107223;1276;22517;-86
2023/03/01 04:46:21;;;;;;;38.10;34.60;;;;;;;-5.30;79.18;98962.36;107403;1276;24076;-86
2023/03/01 04:48:50;;;;;;;40.60;36.70;;;;;;;-5.26;79.22;98961.14;107230;1276;22580;-85
2023/03/01 04:51:18;;;;;;;41.30;37.00;;;;;;;-5.23;79.30;98961.09;107886;1276;22601;-83
2023/03/01 04:53:47;;;;;;;46.50;42.00;;;;;;;-5.20;79.23;98957.33;108620;1276;23095;-86
2023/03/01 04:56:17;;;;;;;47.50;42.90;;;;;;;-5.20;78.91;98955.34;108320;1263;22547;-85
2023/03/01 04:58:46;;;;;;;48.20;43.40;;;;;;;-5.26;78.71;98944.39;108251;1276;25287;-85
2023/03/01 05:01:20;;;;;;;46.70;42.00;;;;;;;-5.32;78.82;98947.00;107251;1276;26577;-85
2023/03/01 05:03:50;;;;;;;46.40;41.20;;;;;;;-5.32;78.90;98950.66;107213;1276;22599;-83
2023/03/01 05:06:20;;;;;;;45.30;40.40;;;;;;;-5.29;78.75;98943.84;107271;1276;22607;-84
2023/03/01 05:08:48;;;;;;;46.20;41.30;;;;;;;-5.26;78.80;98941.17;107198;1276;23343;-84
2023/03/01 05:11:16;;;;;;;48.70;43.50;;;;;;;-5.22;78.80;98946.23;107906;1276;22514;-88
2023/03/01 05:13:44;;;;;;;46.60;41.60;;;;;;;-5.19;78.98;98945.38;108832;1272;22577;-86
2023/03/01 05:16:12;;;;;;;46.50;41.60;;;;;;;-5.25;79.43;98947.40;108655;1276;22650;-86
2023/03/01 05:18:41;;;;;;;52.20;46.60;;;;;;;-5.40;79.99;98950.20;107641;1276;23869;-84
2023/03/01 05:21:12;;;;;;;51.90;46.80;;;;;;;-5.53;79.46;98942.79;108150;1276;22569;-87
2023/03/01 05:23:41;;;;;;;49.40;44.40;;;;;;;-5.56;79.37;98934.01;108063;1276;22529;-88
2023/03/01 05:26:09;;;;;;;45.30;40.70;;;;;;;-5.52;79.50;98933.43;107673;1276;24231;-86
2023/03/01 05:28:58;;;;;;;;;;;;;;;-5.49;79.19;98935.88;107012;1276;24304;-87
2023/03/01 05:31:27;;;;;;;48.40;40.20;;;;;;;-5.47;79.10;98933.41;107192;1276;22542;-88
2023/03/01 05:33:55;;;;;;;48.40;43.20;;;;;;;-5.41;79.18;98932.07;107094;1276;24279;-86
2023/03/01 05:36:23;;;;;;;48.00;42.60;;;;;;;-5.41;79.60;98935.55;107278;1276;22550;-89
2023/03/01 05:38:52;;;;;;;78.40;62.40;;;;;;;-5.55;79.74;98944.56;107474;1276;22572;-85
2023/03/01 05:41:20;;;;;;;59.50;53.10;;;;;;;-5.64;79.76;98950.34;107406;1254;25531;-85
2023/03/01 05:43:48;;;;;;;57.10;50.00;;;;;;;-5.66;79.85;98953.44;107405;1276;26529;-89
2023/03/01 05:46:17;;;;;;;70.30;63.30;;;;;;;-5.69;80.00;98957.55;107353;1267;22514;-87
2023/03/01 05:48:45;;;;;;;65.00;57.90;;;;;;;-5.80;79.98;98963.99;107223;1276;22992;-85
2023/03/01 05:51:13;;;;;;;60.00;53.70;;;;;;;-5.82;79.75;98964.73;107100;1276;22636;-84
2023/03/01 05:53:41;;;;;;;60.40;53.50;;;;;;;-5.75;79.91;98958.18;107301;1276;22644;-84
2023/03/01 05:56:10;;;;;;;57.10;51.60;;;;;;;-5.61;80.07;98955.61;107103;1276;22528;-83
2023/03/01 05:58:38;;;;;;;54.90;49.10;;;;;;;-5.47;80.25;98958.95;107090;1276;22525;-85
2023/03/01 06:01:12;;;;;;;59.00;50.50;;;;;;;-5.48;81.35;98949.93;107177;1276;24266;-86
2023/03/01 06:03:41;;;;;;;58.60;50.50;;;;;;;-5.69;81.83;98955.56;107293;1276;22784;-87
2023/03/01 06:06:09;;;;;;;53.90;47.80;;;;;;;-5.78;81.50;98955.08;107032;1276;23893;-85
2023/03/01 06:08:37;;;;;;;54.80;49.10;;;;;;;-5.76;81.13;98956.14;107306;1276;22572;-86
2023/03/01 06:11:06;;;;;;;53.80;48.30;;;;;;;-5.67;81.12;98957.80;107260;1276;24791;-86
2023/03/01 06:13:35;;;;;;;56.80;49.20;;;;;;;-5.57;81.67;98963.22;107120;1276;22694;-86
2023/03/01 06:16:07;;;;;;;57.20;51.20;;;;;;;-5.50;81.48;98963.09;107102;1276;24218;-86
2023/03/01 06:18:36;;;;;;;61.40;53.70;;;;;;;-5.40;81.74;98961.31;106956;1276;23923;-85
2023/03/01 06:21:06;;;;;;;83.00;67.70;;;;;;;-5.32;81.88;98960.70;107122;1276;24269;-86
2023/03/01 06:23:34;;;;;;;102.60;75.10;;;;;;;-5.24;81.72;98960.27;107083;1276;22461;-86
2023/03/01 06:26:08;;;;;;;99.10;71.50;;;;;;;-5.14;81.66;98959.54;107066;1276;23033;-86
2023/03/01 06:28:36;;;;;;;65.90;58.40;;;;;;;-5.03;81.91;98962.63;107127;1276;26528;-85
2023/03/01 06:31:08;;;;;;;78.80;68.70;;;;;;;-4.86;81.80;98967.70;107171;1277;22633;-85
2023/03/01 06:33:36;;;;;;;78.00;61.80;;;;;;;-4.66;81.72;98966.29;106898;1276;25271;-86
2023/03/01 06:36:05;;;;;;;68.20;60.60;;;;;;;-4.47;81.54;98964.05;107086;1276;22667;-85
2023/03/01 06:38:33;;;;;;;65.00;58.40;;;;;;;-4.32;81.68;98958.59;107212;1276;22537;-85
2023/03/01 06:41:01;;;;;;;67.00;59.90;;;;;;;-4.16;81.82;98956.77;107067;1276;24340;-83
2023/03/01 06:43:29;;;;;;;72.90;64.20;;;;;;;-4.02;81.75;98958.98;107172;1276;25240;-85
2023/03/01 06:45:57;;;;;;;72.60;65.50;;;;;;;-3.88;81.77;98960.45;107135;1276;22518;-85
2023/03/01 06:48:26;;;;;;;78.30;71.20;;;;;;;-3.74;81.77;98957.58;107124;1276;25555;-86
2023/03/01 06:50:54;;;;;;;78.20;68.50;;;;;;;-3.58;81.73;98948.72;107124;1276;22621;-85
2023/03/01 06:53:22;;;;;;;67.00;60.50;;;;;;;-3.41;81.69;98952.88;107200;1276;22548;-85
2023/03/01 06:55:57;;;;;;;65.80;59.00;;;;;;;-3.21;81.62;98952.80;107197;1276;24205;-85
2023/03/01 06:58:25;;;;;;;278.30;146.20;;;;;;;-3.02;81.48;98953.08;107600;1276;25998;-85
2023/03/01 07:00:53;;;;;;;218.10;121.80;;;;;;;-2.85;81.48;98952.30;107904;1276;22569;-87
2023/03/01 07:03:22;;;;;;;218.00;124.20;;;;;;;-2.71;81.41;98949.02;107834;1276;22606;-84
2023/03/01 07:05:54;;;;;;;122.00;83.80;;;;;;;-2.59;81.40;98950.98;107330;1276;24252;-86
2023/03/01 07:08:22;;;;;;;147.00;93.80;;;;;;;-2.46;81.43;98949.10;107099;1276;22562;-87
2023/03/01 07:10:58;;;;;;;88.10;74.50;;;;;;;-2.36;81.67;98949.73;107080;1266;22602;-87
2023/03/01 07:13:27;;;;;;;103.50;86.10;;;;;;;-2.25;81.43;98944.92;107181;1276;24270;-86
2023/03/01 07:15:55;;;;;;;171.00;115.40;;;;;;;-2.18;81.29;98945.21;107222;1276;25476;-85
2023/03/01 07:18:23;;;;;;;217.60;140.30;;;;;;;-2.11;81.46;98945.80;107256;1276;24072;-86
2023/03/01 07:20:51;;;;;;;210.90;133.90;;;;;;;-2.04;81.57;98944.35;107183;1276;25567;-88
2023/03/01 07:23:19;;;;;;;188.00;123.80;;;;;;;-1.95;81.59;98942.67;107190;1276;22488;-86
2023/03/01 07:25:53;;;;;;;147.50;102.10;;;;;;;-1.86;81.71;98937.70;107120;1276;25255;-90
2023/03/01 07:28:23;;;;;;;94.60;79.60;;;;;;;-1.77;81.61;98937.55;107087;1276;22570;-86
2023/03/01 07:30:51;;;;;;;60.60;54.70;;;;;;;-1.69;81.72;98927.35;106894;1276;22568;-87
2023/03/01 07:33:19;;;;;;;57.40;52.10;;;;;;;-1.62;81.63;98923.61;107039;1276;22775;-87
2023/03/01 07:35:47;;;;;;;55.90;50.50;;;;;;;-1.54;81.44;98922.61;107104;1276;24208;-87
2023/03/01 07:38:15;;;;;;;58.30;52.90;;;;;;;-1.49;81.49;98919.77;107214;1276;24375;-88
2023/03/01 07:40:43;;;;;;;57.80;52.10;;;;;;;-1.41;81.39;98915.59;107179;1257;25398;-86
2023/03/01 07:43:11;;;;;;;48.90;43.90;;;;;;;-1.27;81.32;98915.98;107196;1276;24377;-87
2023/03/01 07:45:39;;;;;;;48.30;43.60;;;;;;;-1.14;81.03;98914.11;107218;1256;23335;-86
2023/03/01 07:48:07;;;;;;;45.90;41.50;;;;;;;-1.01;81.14;98917.65;107083;1276;24720;-87
2023/03/01 07:50:35;;;;;;;47.30;42.30;;;;;;;-0.85;81.05;98916.02;108022;1276;24541;-88
2023/03/01 07:53:04;;;;;;;46.90;42.40;;;;;;;-0.73;81.19;98923.27;107486;1276;22565;-85
2023/03/01 07:55:32;;;;;;;49.60;44.60;;;;;;;-0.64;81.01;98927.76;108307;1276;24295;-84
2023/03/01 07:58:00;;;;;;;48.90;44.30;;;;;;;-0.57;80.89;98925.34;108841;1276;25421;-84
2023/03/01 08:00:28;;;;;;;50.10;45.20;;;;;;;-0.51;80.55;98930.11;109070;1276;24362;-85
2023/03/01 08:02:59;;;;;;;47.10;42.70;;;;;;;-0.45;80.72;98928.40;108797;1276;22536;-89
2023/03/01 08:05:28;;;;;;;47.00;42.60;;;;;;;-0.32;80.96;98926.95;107265;1256;24289;-86
2023/03/01 08:07:56;;;;;;;47.80;43.40;;;;;;;-0.20;80.85;98921.94;107502;1256;22527;-87
2023/03/01 08:10:24;;;;;;;50.10;45.40;;;;;;;-0.09;80.73;98924.39;107364;1276;22740;-87
2023/03/01 08:16:40;;;;;;;50.70;46.00;;;;;;;0.12;80.43;98924.00;107158;1276;26528;-86
2023/03/01 08:19:11;;;;;;;50.30;45.50;;;;;;;0.19;79.88;98919.14;107184;1276;22580;-86
2023/03/01 08:21:39;;;;;;;51.70;46.70;;;;;;;0.24;79.46;98920.44;107231;1276;22731;-86
2023/03/01 08:24:09;;;;;;;48.80;44.20;;;;;;;0.32;79.58;98919.93;107124;1276;23182;-87
2023/03/01 08:26:38;;;;;;;48.40;43.90;;;;;;;0.39;79.37;98915.55;107211;1276;25304;-87
2023/03/01 08:29:06;;;;;;;46.70;42.00;;;;;;;0.44;78.48;98915.21;107181;1266;25802;-87
2023/03/01 08:31:37;;;;;;;46.90;42.30;;;;;;;0.49;78.31;98906.88;107175;1276;25367;-87
2023/03/01 08:34:11;;;;;;;45.70;41.10;;;;;;;0.58;78.58;98905.05;107140;1276;24202;-86
2023/03/01 08:36:41;;;;;;;46.70;42.40;;;;;;;0.67;78.42;98906.08;107127;1276;26544;-86
2023/03/01 08:39:12;;;;;;;45.40;41.30;;;;;;;0.72;77.98;98904.02;107249;1276;22644;-86
2023/03/01 08:41:41;;;;;;;45.40;40.80;;;;;;;0.79;78.30;98900.64;107249;1276;25240;-87
2023/03/01 08:44:11;;;;;;;49.20;44.20;;;;;;;0.88;78.26;98903.17;107217;1276;22756;-87
2023/03/01 08:46:41;;;;;;;43.90;39.30;;;;;;;1.01;78.44;98898.79;107242;1276;22586;-87
2023/03/01 08:49:15;;;;;;;43.10;38.70;;;;;;;1.13;77.96;98890.55;107244;1276;22532;-87
2023/03/01 08:51:45;;;;;;;38.60;34.80;;;;;;;1.22;77.79;98890.79;107209;1276;22620;-88
2023/03/01 08:54:20;;;;;;;39.20;35.40;;;;;;;1.28;77.58;98889.40;107198;1276;22511;-87
2023/03/01 08:56:49;;;;;;;39.80;35.80;;;;;;;1.34;77.09;98888.06;107243;1253;22559;-87
2023/03/01 08:59:18;;;;;;;39.90;35.90;;;;;;;1.40;77.24;98883.05;107210;1277;22648;-86
2023/03/01 09:01:46;;;;;;;38.50;34.50;;;;;;;1.49;77.12;98885.63;107221;1277;25336;-86
2023/03/01 09:04:16;;;;;;;39.40;35.60;;;;;;;1.57;76.48;98886.50;107243;1276;22610;-86
2023/03/01 09:06:44;;;;;;;42.10;38.10;;;;;;;1.67;76.15;98884.52;107415;1276;25580;-87
2023/03/01 09:09:17;;;;;;;38.70;34.80;;;;;;;1.70;74.22;98888.05;107097;1276;23437;-89
2023/03/01 09:11:46;;;;;;;40.00;36.00;;;;;;;1.74;74.81;98886.77;107219;1277;22617;-87
2023/03/01 09:14:14;;;;;;;39.40;35.50;;;;;;;1.82;75.34;98886.48;107223;1277;22530;-86
2023/03/01 09:16:42;;;;;;;35.80;32.50;;;;;;;1.92;75.08;98893.82;107285;1276;22632;-87
2023/03/01 09:19:11;;;;;;;37.40;33.80;;;;;;;2.05;75.07;98890.18;107260;1276;24402;-86
2023/03/01 09:21:39;;;;;;;37.90;34.20;;;;;;;2.17;75.45;98887.34;107332;1276;23164;-87
2023/03/01 09:24:14;;;;;;;40.60;36.60;;;;;;;2.31;75.53;98882.95;107531;1276;22521;-89
2023/03/01 09:26:46;;;;;;;39.10;35.30;;;;;;;2.44;75.10;98883.09;107529;1277;22851;-87
2023/03/01 09:29:16;;;;;;;37.20;33.70;;;;;;;2.53;72.27;98883.23;110073;1276;22699;-88
2023/03/01 09:31:44;;;;;;;34.60;31.10;;;;;;;2.51;70.79;98883.99;110081;1276;22559;-87
2023/03/01 09:34:15;;;;;;;35.50;31.80;;;;;;;2.56;72.45;98881.56;109929;1277;22572;-87
2023/03/01 09:36:43;;;;;;;34.60;31.40;;;;;;;2.68;73.39;98880.80;109073;1276;22595;-88
2023/03/01 09:39:12;;;;;;;33.50;30.00;;;;;;;2.84;73.49;98880.98;109467;1277;22559;-88
2023/03/01 09:41:43;;;;;;;33.90;30.60;;;;;;;2.99;73.58;98880.91;108737;1273;22465;-89
2023/03/01 09:44:34;;;;;;;32.60;29.60;;;;;;;3.13;72.89;98881.00;108222;1277;22776;-87
2023/03/01 09:47:09;;;;;;;33.20;29.80;;;;;;;3.19;73.12;98877.72;107214;1276;24055;-86
2023/03/01 09:49:48;;;;;;;30.30;27.40;;;;;;;3.26;72.17;98877.46;107360;1276;22513;-86
2023/03/01 09:52:53;;;;;;;32.30;29.20;;;;;;;3.34;73.03;98875.59;107662;1276;25361;-87
2023/03/01 09:55:51;;;;;;;30.80;27.80;;;;;;;3.53;72.43;98871.52;107217;1276;22648;-86
2023/03/01 09:58:36;;;;;;;37.60;30.10;;;;;;;3.69;72.18;98871.29;107802;1277;22717;-86
2023/03/01 10:01:31;;;;;;;32.80;29.60;;;;;;;3.87;72.41;98873.79;107991;1276;25368;-86
2023/03/01 10:04:19;;;;;;;33.10;29.80;;;;;;;4.04;72.06;98868.74;108064;1262;22644;-85
2023/03/01 10:07:01;;;;;;;33.90;30.70;;;;;;;4.19;71.13;98870.14;107421;1277;22661;-84
2023/03/01 10:09:33;;;;;;;32.10;29.00;;;;;;;4.19;69.79;98864.11;107153;1277;22547;-85
2023/03/01 10:12:08;;;;;;;33.80;30.50;;;;;;;4.19;69.47;98865.23;107370;1276;25405;-86
2023/03/01 10:14:44;;;;;;;32.20;29.10;;;;;;;4.32;70.74;98865.77;107847;1277;25428;-86
2023/03/01 10:17:15;;;;;;;32.90;29.80;;;;;;;4.47;70.64;98866.53;107057;1274;22528;-87
2023/03/01 10:19:45;;;;;;;30.60;27.30;;;;;;;4.60;69.22;98864.98;107210;1276;22572;-86
2023/03/01 10:22:21;;;;;;;34.30;30.90;;;;;;;4.66;69.45;98863.82;106822;1262;179836;-86
2023/03/01 10:24:51;;;;;;;33.80;30.30;;;;;;;4.75;68.98;98861.81;106998;1276;22620;-88
2023/03/01 10:27:25;;;;;;;29.80;26.90;;;;;;;4.91;69.55;98862.55;107294;1277;22594;-89
2023/03/01 10:30:20;;;;;;;31.40;28.40;;;;;;;5.07;69.30;98854.45;107272;1277;23898;-86
2023/03/01 10:32:52;;;;;;;34.50;31.10;;;;;;;5.16;68.18;98851.26;107320;1276;22608;-85
2023/03/01 10:35:27;;;;;;;33.20;30.00;;;;;;;5.24;68.82;98849.90;107305;1277;22529;-89
2023/03/01 10:38:02;;;;;;;;;;;;;;;5.34;68.44;98846.06;107256;1277;25313;-87
2023/03/01 10:40:32;;;;;;;30.30;27.00;;;;;;;5.43;68.24;98847.30;108206;1277;25240;-88
2023/03/01 10:43:04;;;;;;;30.80;27.70;;;;;;;5.46;67.93;98847.55;109375;1277;22524;-86
2023/03/01 10:45:38;;;;;;;32.10;28.90;;;;;;;5.54;67.81;98839.92;108978;1277;22517;-88
2023/03/01 10:48:19;;;;;;;33.90;29.50;;;;;;;5.66;67.71;98840.82;107273;1277;24276;-88
2023/03/01 10:50:50;;;;;;;34.50;30.20;;;;;;;5.79;67.09;98838.94;107398;1277;22583;-88
2023/03/01 10:53:33;;;;;;;29.30;26.40;;;;;;;5.87;65.82;98839.97;107100;1277;22678;-87
2023/03/01 10:56:10;;;;;;;33.70;30.10;;;;;;;5.95;65.50;98832.72;107238;1276;24243;-88
2023/03/01 10:58:41;;;;;;;30.10;26.90;;;;;;;6.00;64.84;98831.57;107370;1276;22618;-89
2023/03/01 11:01:15;;;;;;;36.40;28.20;;;;;;;6.04;63.36;98828.41;109954;1276;22557;-88
2023/03/01 11:03:43;;;;;;;37.70;29.30;;;;;;;6.08;62.92;98830.94;108451;1276;22633;-89
2023/03/01 11:06:11;;;;;;;31.40;28.20;;;;;;;6.17;63.32;98829.17;107392;1276;22524;-88
2023/03/01 11:08:39;;;;;;;31.80;28.50;;;;;;;6.23;61.49;98829.05;108430;1276;24204;-86
2023/03/01 11:11:14;;;;;;;30.60;27.60;;;;;;;6.17;61.71;98826.29;109695;1276;24216;-87
2023/03/01 11:14:06;;;;;;;36.10;31.70;;;;;;;6.20;60.49;98823.38;109203;1276;22980;-88
2023/03/01 11:17:12;;;;;;;31.40;28.20;;;;;;;6.28;61.05;98812.69;109737;1276;22141;-85
2023/03/01 11:19:40;;;;;;;30.40;27.40;;;;;;;6.41;60.25;98809.52;109610;1254;23627;-84
2023/03/01 11:22:22;;;;;;;29.40;26.40;;;;;;;6.44;60.57;98807.48;109646;1276;22587;-88
2023/03/01 11:24:53;;;;;;;29.60;26.80;;;;;;;6.49;59.22;98806.23;109737;1276;24382;-86
2023/03/01 11:27:43;;;;;;;29.50;26.40;;;;;;;6.48;59.77;98805.01;109828;1276;22546;-86
2023/03/01 11:30:29;;;;;;;31.40;28.00;;;;;;;6.57;60.28;98806.08;109901;1276;22663;-87
2023/03/01 11:33:03;;;;;;;27.10;24.70;;;;;;;6.75;60.98;98802.74;110032;1276;23333;-85
2023/03/01 11:35:42;;;;;;;28.40;25.70;;;;;;;6.96;59.38;98803.07;109857;1276;22566;-86
2023/03/01 11:38:11;;;;;;;28.80;26.00;;;;;;;7.15;60.17;98802.02;109941;1276;23154;-85